»·PEaware :: QXE2134 KEAT-KPDX

QXE2134 :: KEAT-KPDX

FLIGHT INFORMATION

Flight Status: Arrived
Operator:
Horizon Air
More flights by this operator :: More flights under this callsign
Pilot: Jack B. (5846)
Aircraft: DEHAVILLAND DASH 8 400
(DH8D)
More flights by this aircraft type
Origin: KEAT Pangborn Meml
United States
Destination: KPDX Portland Intl
United States
More flights between these airports :: More routes between these airports
Route: OFARO2 ZAXUL YENTL HHOOD4
File this flight plan on PilotEdge
Remarks:
Altitude:
(Current/Filed)
200ft
Speed:
(Current/Filed)
320kts
Departed: 03-Jun-20 02:21 PM
Arrived: 03-Jun-20 03:01 PM
Distance/Time
Traveled:
147nm/0:39
Distance/Time
To Go:
Arrived

Flight Plot

Page will automatically refresh every two minutes.

Flight plan parsing failed; only flown route is shown


Map Options




Map Legend


Flown Route
Filed Route
Departure Airport
Arrival Airport
Navaid (VOR, NDB)
Fix

Horizontal Profiles

Position Reports

Time Latitude Longitude Heading Altitude Ground
Speed
03-Jun-20 14:07 47.404190 -120.210771 133 1256ft 0kts
03-Jun-20 14:08 47.404190 -120.210771 133 1256ft 0kts
03-Jun-20 14:09 47.404190 -120.210771 133 1256ft 0kts
03-Jun-20 14:10 47.404190 -120.210771 133 1256ft 0kts
03-Jun-20 14:11 47.404190 -120.210771 133 1256ft 0kts
03-Jun-20 14:12 47.404190 -120.210771 133 1256ft 0kts
03-Jun-20 14:13 47.404190 -120.210771 133 1256ft 0kts
03-Jun-20 14:14 47.404190 -120.210771 133 1256ft 0kts
03-Jun-20 14:15 47.404190 -120.210771 133 1256ft 0kts
03-Jun-20 14:16 47.404190 -120.210771 133 1256ft 0kts
03-Jun-20 14:17 47.404138 -120.211826 312 1256ft 9kts
03-Jun-20 14:18 47.404752 -120.212810 300 1256ft 0kts
03-Jun-20 14:19 47.404124 -120.214901 136 1256ft 0kts
03-Jun-20 14:20 47.388036 -120.191763 133 2330ft 111kts
03-Jun-20 14:21 47.366342 -120.148852 124 3804ft 159kts
03-Jun-20 14:22 47.336386 -120.091851 139 5696ft 201kts
03-Jun-20 14:23 47.289265 -120.034240 159 7560ft 237kts
03-Jun-20 14:24 47.221544 -120.037750 185 9429ft 260kts
03-Jun-20 14:25 47.150299 -120.062168 211 11244ft 275kts
03-Jun-20 14:26 47.083374 -120.122266 213 13078ft 289kts
03-Jun-20 14:27 47.014245 -120.185215 215 14895ft 297kts
03-Jun-20 14:28 46.944425 -120.248704 216 16696ft 295kts
03-Jun-20 14:29 46.875533 -120.311170 217 18476ft 288kts
03-Jun-20 14:30 46.808158 -120.372101 218 19995ft 286kts
03-Jun-20 14:31 46.736433 -120.436870 217 20060ft 319kts
03-Jun-20 14:32 46.658525 -120.506832 217 20050ft 337kts
03-Jun-20 14:33 46.577816 -120.579067 217 20048ft 343kts
03-Jun-20 14:34 46.496637 -120.651474 217 20046ft 344kts
03-Jun-20 14:35 46.415147 -120.723905 217 20045ft 345kts
03-Jun-20 14:36 46.333307 -120.796393 217 20045ft 345kts
03-Jun-20 14:37 46.251615 -120.868493 217 20044ft 345kts
03-Jun-20 14:38 46.169780 -120.940465 217 20043ft 345kts
03-Jun-20 14:39 46.088348 -121.011837 217 20043ft 345kts
03-Jun-20 14:40 46.006262 -121.083524 216 20042ft 345kts
03-Jun-20 14:41 45.925038 -121.154847 215 19055ft 355kts
03-Jun-20 14:42 45.842272 -121.226699 215 17394ft 351kts
03-Jun-20 14:43 45.759233 -121.298458 214 15697ft 344kts
03-Jun-20 14:44 45.679201 -121.367371 213 13988ft 330kts
03-Jun-20 14:45 45.609283 -121.442526 244 12252ft 311kts
03-Jun-20 14:46 45.575272 -121.553145 249 11079ft 282kts
03-Jun-20 14:47 45.546388 -121.655324 249 10007ft 278kts
03-Jun-20 14:48 45.531533 -121.759951 272 9163ft 276kts
03-Jun-20 14:49 45.535060 -121.870367 272 7081ft 282kts
03-Jun-20 14:50 45.538934 -121.973775 274 6668ft 237kts
03-Jun-20 14:51 45.531814 -122.059853 237 6067ft 228kts
03-Jun-20 14:52 45.496647 -122.132555 235 5680ft 220kts
03-Jun-20 14:53 45.473290 -122.209773 267 5260ft 226kts
03-Jun-20 14:54 45.472522 -122.303353 283 3483ft 236kts
03-Jun-20 14:55 45.500005 -122.378180 297 3266ft 213kts
03-Jun-20 14:56 45.528630 -122.451264 298 2173ft 192kts
03-Jun-20 14:57 45.551018 -122.508443 298 1232ft 148kts
03-Jun-20 14:58 45.569384 -122.555475 298 498ft 125kts
03-Jun-20 14:59 45.585706 -122.597218 299 36ft 86kts
03-Jun-20 15:00 45.588723 -122.599582 116 36ft 20kts
03-Jun-20 15:01 45.586635 -122.593607 49 36ft 12kts

Navigation Log

Ident Type
Flight plan parsing failed, navigation log unavailable